Terminal Aerodrome Forecast
Issued by NWS Austin/San Antonio, TX

Home | Current Version | Previous Version | Text Only | Print | Product List | Glossary On
Versions: 1 2 3 4 5 6 7 8 9 10 11 12 13 14 15 16 17 18 19 20
000
FTUS44 KEWX 230746 AAA
TAFDRT
TAF AMD
KDRT 230746Z 2308/2406 14006KT P6SM FEW014 SCT045 BKN070
      TEMPO 2308/2310 3SM +TSRA BKN014CB
     FM231300 13015KT P6SM BKN015 BKN120
     FM232100 13012KT 5SM SHRA VCTS BKN020CB
     FM240200 11012KT P6SM SCT040 BKN100=

USA.gov is the U.S. government's official web portal to all federal, state and local government web resources and services.